Time;durP1;ratioP1;P1;durP2;ratioP2;P2;SDS_P1;SDS_P2;PMS_P1;PMS_P2;Temp;Humidity;BMP_temperature;BMP_pressure;BME280_temperature;BME280_humidity;BME280_pressure;Samples;Min_cycle;Max_cycle;Signal;HPM_P1;HPM_P2
2023/08/08 00:00:48;;;;;;;2.30;2.03;;;17.80;61.40;;;;;;5048461;28;20079;-50
2023/08/08 00:03:18;;;;;;;3.88;2.33;;;17.70;61.30;;;;;;5046052;28;20052;-49
2023/08/08 00:05:45;;;;;;;2.65;2.22;;;17.70;61.30;;;;;;5048556;28;20073;-53
2023/08/08 00:08:12;;;;;;;2.22;2.03;;;17.70;61.40;;;;;;5046563;28;20621;-49
2023/08/08 00:10:41;;;;;;;3.13;1.90;;;17.60;61.50;;;;;;5046588;28;20068;-51
2023/08/08 00:13:07;;;;;;;1.90;1.80;;;17.60;61.60;;;;;;5045287;28;20557;-52
2023/08/08 00:15:37;;;;;;;4.18;1.90;;;17.60;61.70;;;;;;5042909;28;20045;-49
2023/08/08 00:18:04;;;;;;;2.65;1.98;;;17.60;62.40;;;;;;5045056;28;20102;-53
2023/08/08 00:20:31;;;;;;;2.53;1.95;;;17.50;61.80;;;;;;5045734;28;20048;-47
2023/08/08 00:22:58;;;;;;;3.05;2.63;;;17.50;62.00;;;;;;5044181;28;20037;-52
2023/08/08 00:25:25;;;;;;;3.75;2.63;;;17.50;62.00;;;;;;5047157;28;20045;-50
2023/08/08 00:27:55;;;;;;;2.20;2.05;;;17.40;62.10;;;;;;5045028;28;20051;-50
2023/08/08 00:30:22;;;;;;;2.67;2.10;;;17.40;62.20;;;;;;5038958;28;20045;-47
2023/08/08 00:32:48;;;;;;;2.78;2.50;;;17.40;62.40;;;;;;5048166;28;20483;-52
2023/08/08 00:35:15;;;;;;;7.10;3.08;;;17.30;62.40;;;;;;5029041;28;20048;-49
2023/08/08 00:37:42;;;;;;;2.35;2.15;;;17.30;62.60;;;;;;5042144;28;20380;-48
2023/08/08 00:40:09;;;;;;;4.32;2.22;;;17.30;62.70;;;;;;5027142;28;20436;-52
2023/08/08 00:42:35;;;;;;;4.93;2.45;;;17.30;62.70;;;;;;5028277;28;20064;-50
2023/08/08 00:45:03;;;;;;;3.40;3.10;;;17.30;62.80;;;;;;5043110;28;20041;-50
2023/08/08 00:47:36;;;;;;;2.88;2.08;;;17.30;62.90;;;;;;5051698;28;20130;-49
2023/08/08 00:50:04;;;;;;;2.97;2.03;;;17.20;63.20;;;;;;5044704;28;20029;-48
2023/08/08 00:52:32;;;;;;;5.35;2.10;;;17.20;63.00;;;;;;5043177;28;20025;-49
2023/08/08 00:55:03;;;;;;;3.53;2.08;;;17.20;63.10;;;;;;5027788;28;20037;-51
2023/08/08 00:57:31;;;;;;;4.07;2.28;;;17.20;63.20;;;;;;5047516;28;20033;-50
2023/08/08 01:00:02;;;;;;;2.92;2.10;;;17.20;63.20;;;;;;5027647;28;20539;-50
2023/08/08 01:02:29;;;;;;;3.78;2.20;;;17.10;63.30;;;;;;5032226;28;20036;-47
2023/08/08 01:04:59;;;;;;;3.85;2.55;;;17.10;63.40;;;;;;5046916;28;20498;-49
2023/08/08 01:07:52;;;;;;;3.45;2.25;;;17.10;63.50;;;;;;5044611;28;20069;-50
2023/08/08 01:10:27;;;;;;;3.05;2.03;;;17.10;64.10;;;;;;5048640;28;20045;-48
2023/08/08 01:13:00;;;;;;;3.92;2.30;;;17.10;63.90;;;;;;5030925;28;20180;-52
2023/08/08 01:15:32;;;;;;;2.83;2.00;;;17.10;63.70;;;;;;5049814;28;20060;-48
2023/08/08 01:18:00;;;;;;;3.20;2.92;;;17.00;63.70;;;;;;5048248;28;20555;-51
2023/08/08 01:20:35;;;;;;;2.55;2.00;;;17.00;63.60;;;;;;5028154;28;20029;-49
2023/08/08 01:23:28;;;;;;;2.80;2.30;;;17.00;63.70;;;;;;5034185;28;20041;-50
2023/08/08 01:25:57;;;;;;;2.83;2.60;;;17.00;64.20;;;;;;5045956;28;20072;-52
2023/08/08 01:28:28;;;;;;;2.55;2.30;;;17.00;63.90;;;;;;5046679;28;20052;-50
2023/08/08 01:30:57;;;;;;;5.55;3.03;;;17.00;64.20;;;;;;5050169;28;20566;-51
2023/08/08 01:33:29;;;;;;;2.90;2.30;;;16.90;64.20;;;;;;5048712;28;20128;-51
2023/08/08 01:36:13;;;;;;;4.30;2.08;;;17.00;64.30;;;;;;5044436;28;20413;-53
2023/08/08 01:38:46;;;;;;;5.47;2.28;;;17.00;64.80;;;;;;5050283;28;20446;-47
2023/08/08 01:41:18;;;;;;;;;;;17.00;64.40;;;;;;5047038;28;20041;-50
2023/08/08 01:43:47;;;;;;;3.33;1.88;;;17.10;64.20;;;;;;5046404;28;19924;-50
2023/08/08 01:46:20;;;;;;;2.63;2.40;;;17.00;63.80;;;;;;5051323;28;20056;-52
2023/08/08 01:48:52;;;;;;;3.97;2.70;;;17.00;64.00;;;;;;5030277;28;20041;-49
2023/08/08 01:51:21;;;;;;;2.45;2.20;;;17.00;64.00;;;;;;5032303;28;20057;-52
2023/08/08 01:53:52;;;;;;;2.78;1.95;;;17.00;64.10;;;;;;5030222;28;20130;-50
2023/08/08 01:56:26;;;;;;;2.78;2.08;;;17.00;64.20;;;;;;5047830;28;20715;-48
2023/08/08 01:59:01;;;;;;;3.45;2.17;;;17.00;64.20;;;;;;5029005;28;20037;-52
2023/08/08 02:01:29;;;;;;;2.92;2.35;;;16.90;64.30;;;;;;5046757;28;20130;-52
2023/08/08 02:03:59;;;;;;;2.63;2.28;;;16.90;64.40;;;;;;5043358;28;20037;-52
2023/08/08 02:06:26;;;;;;;2.10;1.92;;;16.90;64.50;;;;;;5030438;28;20048;-51
2023/08/08 02:08:54;;;;;;;3.17;2.13;;;16.90;64.50;;;;;;5045762;28;20056;-49
2023/08/08 02:11:25;;;;;;;1.98;1.60;;;16.90;64.70;;;;;;5031137;28;20103;-49
2023/08/08 02:13:56;;;;;;;2.78;1.80;;;16.80;64.70;;;;;;5029872;28;20056;-53
2023/08/08 02:16:24;;;;;;;2.20;1.90;;;16.80;64.80;;;;;;5049188;28;20052;-47
2023/08/08 02:18:51;;;;;;;1.95;1.80;;;16.80;64.90;;;;;;5031455;28;20106;-50
2023/08/08 02:21:18;;;;;;;2.67;2.10;;;16.80;65.20;;;;;;5028461;28;20466;-52
2023/08/08 02:23:44;;;;;;;4.25;1.60;;;16.80;65.30;;;;;;5044529;28;20117;-49
2023/08/08 02:26:16;;;;;;;2.08;1.67;;;16.80;65.40;;;;;;5048176;28;20065;-52
2023/08/08 02:28:47;;;;;;;2.55;1.90;;;16.80;65.60;;;;;;5034608;28;20099;-50
2023/08/08 02:31:20;;;;;;;3.50;1.92;;;16.80;65.50;;;;;;5049870;28;20498;-47
2023/08/08 02:33:52;;;;;;;4.78;2.70;;;16.80;65.40;;;;;;5042962;28;20048;-52
2023/08/08 02:36:21;;;;;;;3.67;2.28;;;16.70;65.40;;;;;;5042229;28;20687;-50
2023/08/08 02:38:53;;;;;;;2.13;1.75;;;16.70;65.50;;;;;;5026494;28;20399;-50
2023/08/08 02:41:23;;;;;;;5.22;2.00;;;16.70;65.60;;;;;;5030028;28;20037;-49
2023/08/08 02:43:50;;;;;;;5.03;2.33;;;16.70;65.90;;;;;;5042695;28;20048;-53
2023/08/08 02:46:19;;;;;;;2.22;1.83;;;16.70;65.80;;;;;;5028159;28;20139;-50
2023/08/08 02:48:46;;;;;;;3.65;2.03;;;16.70;66.60;;;;;;5027721;28;20103;-49
2023/08/08 02:51:14;;;;;;;6.50;2.28;;;16.60;66.00;;;;;;5031827;28;20719;-52
2023/08/08 02:53:41;;;;;;;2.45;2.15;;;16.60;66.10;;;;;;5043611;28;20064;-49
2023/08/08 02:56:10;;;;;;;2.85;1.70;;;16.60;66.20;;;;;;5052481;28;20106;-49
2023/08/08 02:58:40;;;;;;;2.65;1.73;;;16.60;66.30;;;;;;5027473;28;20036;-49
2023/08/08 03:01:07;;;;;;;4.28;1.90;;;16.60;66.40;;;;;;5031585;28;20526;-52
2023/08/08 03:03:38;;;;;;;3.90;1.98;;;16.60;66.50;;;;;;5031127;28;20090;-52
2023/08/08 03:06:05;;;;;;;3.55;1.55;;;16.50;66.60;;;;;;5030210;28;20103;-47
2023/08/08 03:08:35;;;;;;;4.25;1.70;;;16.50;66.70;;;;;;5044756;28;20499;-50
2023/08/08 03:11:04;;;;;;;5.22;2.17;;;16.50;66.80;;;;;;5024676;28;20045;-50
2023/08/08 03:13:32;;;;;;;5.57;2.65;;;16.50;66.90;;;;;;5027357;28;20037;-52
2023/08/08 03:16:02;;;;;;;2.53;2.30;;;16.50;67.00;;;;;;5040563;28;20044;-48
2023/08/08 03:18:31;;;;;;;2.85;2.58;;;16.50;67.10;;;;;;5031156;28;20049;-49
2023/08/08 03:20:58;;;;;;;3.35;3.05;;;16.50;67.10;;;;;;5028099;28;20033;-49
2023/08/08 03:23:28;;;;;;;4.45;2.45;;;16.50;67.30;;;;;;5030746;28;20045;-49
2023/08/08 03:25:55;;;;;;;5.45;2.70;;;16.50;67.40;;;;;;5028732;28;20048;-50
2023/08/08 03:28:24;;;;;;;4.85;2.47;;;16.50;67.50;;;;;;5028512;28;20049;-48
2023/08/08 03:30:53;;;;;;;3.13;2.20;;;16.50;67.70;;;;;;5046299;28;20055;-46
2023/08/08 03:33:21;;;;;;;2.72;2.22;;;16.50;67.80;;;;;;5020978;28;20045;-48
2023/08/08 03:35:48;;;;;;;4.13;2.35;;;16.40;67.90;;;;;;5025679;28;20761;-47
2023/08/08 03:38:17;;;;;;;6.60;2.45;;;16.50;68.10;;;;;;5029550;28;20704;-49
2023/08/08 03:40:44;;;;;;;2.97;2.33;;;16.50;68.20;;;;;;5023905;28;20044;-48
2023/08/08 03:43:13;;;;;;;5.50;2.47;;;16.50;68.30;;;;;;5040065;28;20516;-50
2023/08/08 03:45:41;;;;;;;6.35;3.38;;;16.60;68.40;;;;;;5042940;28;20411;-47
2023/08/08 03:48:08;;;;;;;4.65;2.10;;;16.60;68.50;;;;;;5031319;28;20095;-52
2023/08/08 03:50:35;;;;;;;3.05;2.38;;;16.60;68.60;;;;;;5036517;28;20045;-49
2023/08/08 03:53:04;;;;;;;5.03;2.15;;;16.60;68.60;;;;;;5040826;28;20115;-51
2023/08/08 03:55:32;;;;;;;4.68;2.40;;;16.60;68.70;;;;;;5031429;28;20679;-52
2023/08/08 03:57:59;;;;;;;3.67;2.33;;;16.70;68.80;;;;;;5030174;28;20045;-48
2023/08/08 04:00:34;;;;;;;6.65;2.17;;;16.70;68.80;;;;;;5051030;28;20041;-51
2023/08/08 04:03:01;;;;;;;3.60;2.20;;;16.70;68.90;;;;;;5043366;28;20049;-52
2023/08/08 04:05:30;;;;;;;3.65;2.38;;;16.70;68.70;;;;;;5021293;28;20049;-46
2023/08/08 04:08:01;;;;;;;4.97;2.70;;;16.70;68.70;;;;;;5040126;28;20107;-49
2023/08/08 04:10:27;;;;;;;3.05;2.08;;;16.70;68.80;;;;;;5051858;28;20049;-48
2023/08/08 04:13:02;;;;;;;5.00;2.28;;;16.80;69.00;;;;;;5041357;28;20040;-49
2023/08/08 04:15:42;;;;;;;6.25;3.00;;;16.80;69.30;;;;;;5028302;28;20059;-49
2023/08/08 04:18:08;;;;;;;6.60;3.75;;;16.80;69.00;;;;;;5030708;28;20644;-49
2023/08/08 04:20:38;;;;;;;4.45;2.13;;;16.80;68.80;;;;;;5046281;28;20053;-49
2023/08/08 04:23:06;;;;;;;5.72;2.72;;;16.80;68.90;;;;;;5044410;28;20471;-52
2023/08/08 04:25:37;;;;;;;5.60;2.85;;;16.80;68.90;;;;;;5038791;28;20099;-50
2023/08/08 04:28:09;;;;;;;6.65;3.35;;;16.90;69.20;;;;;;5037979;28;20823;-51
2023/08/08 04:30:39;;;;;;;5.22;3.00;;;16.90;69.10;;;;;;5052369;28;20049;-51
2023/08/08 04:33:12;;;;;;;6.28;2.85;;;16.90;69.00;;;;;;5051978;28;20118;-49
2023/08/08 04:35:39;;;;;;;6.88;2.90;;;16.90;69.00;;;;;;5052298;28;20483;-52
2023/08/08 04:38:08;;;;;;;6.30;2.80;;;16.90;69.00;;;;;;5052630;28;20091;-48
2023/08/08 04:40:35;;;;;;;9.15;3.10;;;16.90;69.10;;;;;;5047233;28;20095;-50
2023/08/08 04:43:03;;;;;;;5.97;2.78;;;16.90;69.10;;;;;;5052205;28;20041;-48
2023/08/08 04:45:31;;;;;;;5.15;2.60;;;16.90;69.20;;;;;;5048266;28;20044;-47
2023/08/08 04:48:00;;;;;;;4.80;2.90;;;16.90;69.20;;;;;;5038199;28;20095;-47
2023/08/08 04:50:29;;;;;;;6.05;2.83;;;16.90;69.30;;;;;;5047596;28;20091;-52
2023/08/08 04:52:56;;;;;;;6.78;2.95;;;16.90;69.40;;;;;;5054720;28;20044;-47
2023/08/08 04:55:23;;;;;;;7.00;2.92;;;16.90;69.50;;;;;;5043635;28;20049;-49
2023/08/08 04:57:49;;;;;;;6.03;2.90;;;16.90;69.60;;;;;;5043003;28;20100;-48
2023/08/08 05:00:16;;;;;;;5.68;2.95;;;16.90;69.60;;;;;;5049544;28;20052;-52
2023/08/08 05:02:43;;;;;;;8.45;3.00;;;16.90;69.60;;;;;;5034761;28;20080;-48
2023/08/08 05:05:14;;;;;;;5.30;2.78;;;17.10;69.80;;;;;;5039034;28;20099;-49
2023/08/08 05:07:43;;;;;;;7.32;2.65;;;17.00;69.60;;;;;;5041059;28;20053;-52
2023/08/08 05:10:10;;;;;;;5.78;3.20;;;17.00;69.60;;;;;;5045019;28;20142;-52
2023/08/08 05:12:39;;;;;;;3.50;2.45;;;17.00;69.60;;;;;;5040590;28;20100;-52
2023/08/08 05:15:08;;;;;;;7.95;3.25;;;17.10;69.60;;;;;;5041198;28;20114;-52
2023/08/08 05:17:35;;;;;;;3.78;2.60;;;17.10;69.40;;;;;;5046951;28;20087;-52
2023/08/08 05:20:05;;;;;;;5.50;2.60;;;17.10;69.40;;;;;;5024505;28;20061;-51
2023/08/08 05:22:33;;;;;;;3.63;2.47;;;17.10;69.60;;;;;;5038702;28;20046;-53
2023/08/08 05:25:09;;;;;;;5.78;2.75;;;17.20;69.40;;;;;;5038327;28;20128;-51
2023/08/08 05:27:36;;;;;;;4.18;2.50;;;17.10;69.40;;;;;;5044899;28;20091;-50
2023/08/08 05:30:06;;;;;;;8.05;3.33;;;17.10;69.20;;;;;;5046402;28;20106;-52
2023/08/08 05:32:36;;;;;;;7.10;3.53;;;17.10;69.10;;;;;;5037890;28;20049;-52
2023/08/08 05:35:05;;;;;;;6.65;3.15;;;17.10;69.10;;;;;;5038153;28;20044;-52
2023/08/08 05:37:32;;;;;;;6.25;3.70;;;17.20;69.40;;;;;;5030977;28;20759;-53
2023/08/08 05:39:59;;;;;;;6.50;2.65;;;17.10;69.30;;;;;;5040801;28;20118;-52
2023/08/08 05:42:27;;;;;;;6.95;3.15;;;17.10;69.60;;;;;;5034277;28;20099;-53
2023/08/08 05:44:56;;;;;;;4.60;2.92;;;17.10;69.60;;;;;;5044023;28;20047;-50
2023/08/08 05:47:22;;;;;;;6.75;2.80;;;17.10;69.70;;;;;;5043004;28;20041;-52
2023/08/08 05:49:51;;;;;;;7.45;2.63;;;17.20;69.80;;;;;;5038593;28;20127;-53
2023/08/08 05:52:21;;;;;;;3.78;2.65;;;17.20;69.80;;;;;;5046913;28;20074;-54
2023/08/08 05:54:47;;;;;;;6.13;2.42;;;17.20;69.80;;;;;;5047737;28;20041;-52
2023/08/08 05:57:24;;;;;;;4.20;2.85;;;17.30;69.80;;;;;;5042468;28;20041;-50
2023/08/08 05:59:53;;;;;;;5.82;2.30;;;17.30;69.80;;;;;;5054240;28;20044;-52
2023/08/08 06:02:22;;;;;;;10.77;3.08;;;17.30;69.60;;;;;;5040079;28;20048;-52
2023/08/08 06:04:50;;;;;;;6.80;3.03;;;17.40;69.50;;;;;;5043979;28;20584;-51
2023/08/08 06:07:17;;;;;;;6.30;2.60;;;17.40;69.40;;;;;;5023652;28;20058;-51
2023/08/08 06:09:51;;;;;;;4.43;2.60;;;17.40;69.50;;;;;;5036511;28;20100;-50
2023/08/08 06:12:17;;;;;;;5.22;2.85;;;17.50;69.70;;;;;;5027292;28;20084;-52
2023/08/08 06:14:44;;;;;;;3.60;2.67;;;17.50;69.50;;;;;;5035943;28;20124;-52
2023/08/08 06:17:14;;;;;;;4.18;2.38;;;17.60;69.60;;;;;;5046266;28;20162;-50
2023/08/08 06:19:44;;;;;;;5.28;2.60;;;17.60;69.70;;;;;;5047381;28;20116;-53
2023/08/08 06:22:12;;;;;;;6.20;2.55;;;17.60;69.90;;;;;;5043564;28;20122;-52
2023/08/08 06:24:52;;;;;;;4.00;2.45;;;17.70;69.60;;;;;;5037184;28;20415;-52
2023/08/08 06:27:20;;;;;;;3.47;2.55;;;17.80;69.30;;;;;;5035556;28;20099;-52
2023/08/08 06:29:48;;;;;;;5.68;2.50;;;17.90;69.20;;;;;;5054680;28;20041;-51
2023/08/08 06:32:15;;;;;;;6.70;2.45;;;17.90;69.10;;;;;;5040889;28;20050;-53
2023/08/08 06:34:45;;;;;;;6.38;3.65;;;17.90;68.90;;;;;;5035642;28;20037;-51
2023/08/08 06:37:14;;;;;;;5.80;3.20;;;18.00;68.70;;;;;;5041645;28;20080;-53
2023/08/08 06:39:41;;;;;;;8.55;3.13;;;18.00;68.70;;;;;;5045418;28;20571;-51
2023/08/08 06:42:13;;;;;;;6.07;2.90;;;18.10;68.50;;;;;;5044408;28;20073;-52
2023/08/08 06:44:51;;;;;;;5.90;3.60;;;18.10;69.30;;;;;;5045166;28;20045;-53
2023/08/08 06:47:33;;;;;;;6.15;2.97;;;18.20;68.80;;;;;;5046381;28;20055;-51
2023/08/08 06:50:02;;;;;;;6.28;2.70;;;18.30;68.80;;;;;;5036938;28;20040;-51
2023/08/08 06:52:31;;;;;;;6.97;2.35;;;18.30;68.70;;;;;;5043772;28;20039;-53
2023/08/08 06:54:59;;;;;;;6.75;2.63;;;18.40;68.60;;;;;;5048104;28;20041;-53
2023/08/08 06:57:26;;;;;;;8.80;2.80;;;18.50;68.40;;;;;;5034270;28;20099;-52
2023/08/08 06:59:59;;;;;;;6.05;2.60;;;18.60;68.60;;;;;;5047990;28;20049;-52
2023/08/08 07:02:30;;;;;;;5.07;2.85;;;18.70;68.50;;;;;;5035396;28;20064;-50
2023/08/08 07:04:57;;;;;;;5.32;3.55;;;18.80;68.20;;;;;;5029903;28;20045;-50
2023/08/08 07:07:24;;;;;;;4.38;2.40;;;18.80;67.90;;;;;;5032897;28;20133;-53
2023/08/08 07:09:53;;;;;;;6.65;3.70;;;18.90;67.50;;;;;;5046424;28;20140;-51
2023/08/08 07:12:20;;;;;;;6.38;3.22;;;19.00;67.30;;;;;;5041792;28;20045;-53
2023/08/08 07:14:47;;;;;;;6.15;3.22;;;19.00;67.30;;;;;;5032118;28;20597;-48
2023/08/08 07:17:14;;;;;;;4.60;3.03;;;19.00;67.20;;;;;;5042580;28;20086;-52
2023/08/08 07:19:43;;;;;;;12.10;2.75;;;19.10;67.20;;;;;;5047407;28;20120;-52
2023/08/08 07:22:17;;;;;;;7.05;3.13;;;19.20;67.10;;;;;;5033874;28;20048;-53
2023/08/08 07:24:43;;;;;;;4.28;2.55;;;19.20;66.90;;;;;;5033666;28;20073;-52
2023/08/08 07:27:12;;;;;;;7.82;3.42;;;19.30;66.70;;;;;;5037530;28;20049;-51
2023/08/08 07:29:41;;;;;;;5.45;3.25;;;19.30;66.60;;;;;;5053072;28;20405;-51
2023/08/08 07:32:09;;;;;;;6.30;2.50;;;19.40;66.40;;;;;;5029569;28;20044;-51
2023/08/08 07:34:35;;;;;;;4.97;2.60;;;19.40;66.40;;;;;;5035381;28;20124;-52
2023/08/08 07:37:05;;;;;;;6.25;2.88;;;19.40;66.40;;;;;;5039836;28;20044;-53
2023/08/08 07:39:31;;;;;;;5.78;2.55;;;19.50;66.30;;;;;;5048471;28;20131;-52
2023/08/08 07:41:58;;;;;;;4.65;2.70;;;19.50;66.20;;;;;;5034937;28;20049;-53
2023/08/08 07:44:25;;;;;;;6.07;2.72;;;19.50;66.20;;;;;;5026658;28;20064;-50
2023/08/08 07:46:52;;;;;;;3.20;2.58;;;19.60;65.80;;;;;;5040006;28;20120;-53
2023/08/08 07:49:18;;;;;;;3.72;2.50;;;19.60;65.80;;;;;;5031116;28;20517;-52
2023/08/08 07:51:50;;;;;;;5.75;2.58;;;19.60;65.60;;;;;;5028489;28;20028;-53
2023/08/08 07:54:16;;;;;;;4.53;2.75;;;19.60;65.50;;;;;;5034922;28;20121;-52
2023/08/08 07:56:47;;;;;;;6.13;2.97;;;19.60;65.60;;;;;;5029524;28;20139;-53
2023/08/08 07:59:14;;;;;;;7.00;3.05;;;19.60;65.30;;;;;;5048201;28;20044;-53
2023/08/08 08:01:41;;;;;;;6.85;2.47;;;19.70;65.40;;;;;;5036932;28;20069;-52
2023/08/08 08:04:15;;;;;;;5.05;2.72;;;19.70;65.20;;;;;;5030080;28;20037;-49
2023/08/08 08:06:41;;;;;;;6.25;3.03;;;19.70;65.30;;;;;;5040795;28;20037;-52
2023/08/08 08:09:13;;;;;;;6.35;2.83;;;19.60;65.20;;;;;;5050083;28;20049;-52
2023/08/08 08:11:42;;;;;;;4.47;3.00;;;19.70;65.20;;;;;;5035586;28;20107;-53
2023/08/08 08:14:12;;;;;;;8.48;2.90;;;19.70;65.40;;;;;;5042198;28;20065;-48
2023/08/08 08:16:39;;;;;;;4.53;2.67;;;19.80;65.10;;;;;;5058146;28;20040;-48
2023/08/08 08:19:09;;;;;;;6.32;3.33;;;19.80;64.90;;;;;;5046789;28;20048;-52
2023/08/08 08:21:38;;;;;;;5.78;3.20;;;19.80;64.90;;;;;;5034946;28;20120;-53
2023/08/08 08:24:05;;;;;;;5.70;2.75;;;19.80;64.90;;;;;;5034763;28;20037;-51
2023/08/08 08:26:34;;;;;;;5.95;3.00;;;19.80;64.90;;;;;;5049192;28;20111;-50
2023/08/08 08:29:02;;;;;;;5.13;2.95;;;19.90;65.00;;;;;;5040427;28;20052;-52
2023/08/08 08:31:30;;;;;;;6.10;3.67;;;19.90;65.10;;;;;;5041428;28;20050;-49
2023/08/08 08:34:00;;;;;;;4.13;2.53;;;19.90;65.10;;;;;;5032504;28;20706;-51
2023/08/08 08:36:26;;;;;;;4.47;3.22;;;20.00;65.20;;;;;;5033479;28;20069;-51
2023/08/08 08:38:55;;;;;;;8.85;3.28;;;20.10;65.20;;;;;;5039166;28;20056;-52
2023/08/08 08:41:27;;;;;;;5.00;3.00;;;20.20;65.20;;;;;;5041867;28;20484;-52
2023/08/08 08:43:55;;;;;;;5.30;2.90;;;20.30;64.90;;;;;;5038775;28;20067;-52
2023/08/08 08:46:26;;;;;;;5.55;3.10;;;20.30;64.70;;;;;;5040624;28;20099;-53
2023/08/08 08:48:57;;;;;;;5.60;3.20;;;20.40;64.60;;;;;;5032960;28;20056;-49
2023/08/08 08:51:24;;;;;;;7.73;3.53;;;20.50;64.40;;;;;;5037800;28;20049;-52
2023/08/08 08:53:57;;;;;;;8.25;3.35;;;20.50;64.10;;;;;;5042725;28;20128;-49
2023/08/08 08:56:25;;;;;;;8.02;2.55;;;20.60;63.80;;;;;;5038267;28;20068;-49
2023/08/08 08:58:51;;;;;;;8.40;4.28;;;20.60;64.00;;;;;;5039565;28;20067;-51
2023/08/08 09:01:18;;;;;;;5.40;2.92;;;20.70;64.30;;;;;;5044007;28;20041;-53
2023/08/08 09:03:45;;;;;;;6.40;2.58;;;20.80;64.30;;;;;;5032520;28;20117;-53
2023/08/08 09:06:13;;;;;;;2.85;2.20;;;20.80;64.10;;;;;;5032238;28;20057;-53
2023/08/08 09:08:45;;;;;;;5.53;2.60;;;20.90;63.40;;;;;;5047858;28;20049;-50
2023/08/08 09:11:14;;;;;;;4.00;2.72;;;21.00;63.50;;;;;;5041157;28;20049;-48
2023/08/08 09:13:41;;;;;;;5.88;2.55;;;21.10;63.10;;;;;;5048425;28;20091;-52
2023/08/08 09:16:11;;;;;;;5.35;3.17;;;21.20;63.40;;;;;;5052069;28;20124;-52
2023/08/08 09:18:38;;;;;;;6.97;3.20;;;21.20;62.70;;;;;;5050236;28;20453;-51
2023/08/08 09:21:08;;;;;;;5.95;2.88;;;21.20;62.60;;;;;;5043976;28;20045;-53
2023/08/08 09:23:39;;;;;;;5.65;3.00;;;21.30;62.40;;;;;;5049692;28;20083;-48
2023/08/08 09:26:13;;;;;;;4.15;2.25;;;21.40;62.00;;;;;;5051083;28;20503;-51
2023/08/08 09:28:40;;;;;;;5.43;2.53;;;21.40;61.70;;;;;;5051231;28;20046;-49
2023/08/08 09:31:11;;;;;;;3.72;2.05;;;21.40;61.30;;;;;;5051695;28;20069;-52
2023/08/08 09:33:39;;;;;;;3.65;2.47;;;21.50;60.50;;;;;;5051991;28;20044;-51
2023/08/08 09:36:16;;;;;;;6.53;2.38;;;21.50;60.30;;;;;;5050299;28;20068;-52
2023/08/08 09:38:45;;;;;;;4.32;1.98;;;21.50;60.00;;;;;;5050601;28;20045;-52
2023/08/08 09:41:14;;;;;;;5.93;2.47;;;21.50;60.50;;;;;;5054698;28;20126;-52
2023/08/08 09:43:44;;;;;;;4.15;2.30;;;21.50;60.30;;;;;;5052242;28;20158;-53
2023/08/08 09:46:15;;;;;;;8.15;1.80;;;21.50;60.10;;;;;;5050025;28;20132;-53
2023/08/08 09:48:45;;;;;;;7.13;2.80;;;21.50;60.70;;;;;;5049893;28;20495;-51
2023/08/08 09:51:14;;;;;;;;;;;21.60;60.30;;;;;;5052687;28;20037;-53
2023/08/08 09:53:41;;;;;;;5.57;3.05;;;21.60;60.50;;;;;;5053422;28;19960;-53
2023/08/08 09:56:08;;;;;;;3.90;2.25;;;21.60;60.00;;;;;;5049724;28;20073;-52
2023/08/08 09:58:43;;;;;;;6.25;2.85;;;21.50;59.80;;;;;;5049988;28;20037;-51
2023/08/08 10:01:12;;;;;;;7.28;3.17;;;21.40;59.80;;;;;;5047527;28;20034;-52
2023/08/08 10:03:43;;;;;;;4.57;3.03;;;21.30;60.20;;;;;;5045443;28;20056;-48
2023/08/08 10:06:10;;;;;;;3.50;2.47;;;21.20;60.40;;;;;;5048890;28;20508;-53
2023/08/08 10:08:37;;;;;;;7.82;2.45;;;21.10;60.50;;;;;;5051480;28;20041;-50
2023/08/08 10:11:09;;;;;;;3.88;2.50;;;21.10;60.50;;;;;;5050152;28;20048;-51
2023/08/08 10:13:46;;;;;;;4.57;2.60;;;21.00;60.60;;;;;;5048891;28;20040;-51
2023/08/08 10:16:21;;;;;;;6.45;2.63;;;21.00;60.70;;;;;;5047790;28;20171;-49
2023/08/08 10:19:03;;;;;;;4.30;2.30;;;21.00;61.00;;;;;;5048389;28;20563;-49
2023/08/08 10:21:34;;;;;;;5.80;2.40;;;21.00;60.90;;;;;;5045111;28;20033;-49
2023/08/08 10:24:03;;;;;;;3.15;2.63;;;21.00;61.00;;;;;;5048752;28;20111;-52
2023/08/08 10:26:50;;;;;;;5.68;2.30;;;21.10;60.90;;;;;;5043809;28;20167;-48
2023/08/08 10:29:20;;;;;;;3.65;2.42;;;21.10;60.70;;;;;;5043738;28;20136;-53
2023/08/08 10:31:59;;;;;;;5.78;2.42;;;21.10;60.60;;;;;;5043008;28;20086;-49
2023/08/08 10:34:47;;;;;;;2.83;2.42;;;21.10;60.50;;;;;;5040897;28;20044;-51
2023/08/08 10:37:17;;;;;;;4.05;1.90;;;21.20;60.30;;;;;;5045198;28;20103;-52
2023/08/08 10:39:54;;;;;;;4.90;2.60;;;21.20;60.50;;;;;;5047942;28;20037;-53
2023/08/08 10:42:23;;;;;;;3.85;2.30;;;21.20;60.20;;;;;;5048957;28;20086;-53
2023/08/08 10:44:58;;;;;;;5.07;2.05;;;21.30;60.30;;;;;;5045837;28;20068;-53
2023/08/08 10:47:35;;;;;;;4.00;2.53;;;21.30;60.30;;;;;;5047612;28;20045;-53
2023/08/08 10:50:08;;;;;;;5.25;2.28;;;21.30;60.20;;;;;;5046002;28;20681;-53
2023/08/08 10:52:56;;;;;;;3.95;2.45;;;21.40;60.30;;;;;;5041611;28;20044;-51
2023/08/08 10:55:34;;;;;;;6.65;2.40;;;21.40;59.80;;;;;;5047958;28;20049;-53
2023/08/08 10:58:07;;;;;;;5.53;2.20;;;21.40;59.80;;;;;;5045582;28;20045;-53
2023/08/08 11:00:37;;;;;;;4.00;2.03;;;21.30;59.80;;;;;;5049919;28;20432;-52
2023/08/08 11:03:06;;;;;;;4.25;2.60;;;21.20;60.00;;;;;;5047198;28;20436;-53
2023/08/08 11:05:34;;;;;;;3.97;2.22;;;21.20;59.80;;;;;;5041758;28;20064;-53
2023/08/08 11:08:06;;;;;;;5.50;2.45;;;21.20;60.00;;;;;;5030064;28;20041;-53
2023/08/08 11:10:38;;;;;;;3.80;2.60;;;21.10;60.40;;;;;;5049134;28;20044;-52
2023/08/08 11:13:13;;;;;;;4.00;2.35;;;21.10;60.60;;;;;;5047358;28;20045;-53
2023/08/08 11:15:42;;;;;;;5.80;2.55;;;21.10;61.00;;;;;;5049147;28;20060;-51
2023/08/08 11:18:12;;;;;;;3.30;2.38;;;21.20;60.80;;;;;;5043754;28;20039;-53
2023/08/08 11:20:45;;;;;;;3.13;2.80;;;21.20;60.50;;;;;;5046489;28;20076;-53
2023/08/08 11:23:13;;;;;;;5.68;2.95;;;21.30;60.40;;;;;;5033113;28;20041;-51
2023/08/08 11:25:42;;;;;;;5.28;2.70;;;21.30;60.10;;;;;;5048604;28;20059;-51
2023/08/08 11:28:12;;;;;;;4.07;3.15;;;21.20;60.40;;;;;;5046633;28;20045;-52
2023/08/08 11:30:42;;;;;;;3.38;2.30;;;21.20;60.50;;;;;;5050916;28;20041;-53
2023/08/08 11:33:10;;;;;;;3.40;2.70;;;21.10;61.00;;;;;;5046229;28;20503;-50
2023/08/08 11:35:46;;;;;;;5.95;3.00;;;21.10;61.20;;;;;;5045406;28;20039;-51
2023/08/08 11:38:13;;;;;;;3.95;2.88;;;21.00;61.60;;;;;;5042367;28;20141;-53
2023/08/08 11:40:40;;;;;;;3.83;2.65;;;20.90;62.00;;;;;;5047212;28;20473;-52
2023/08/08 11:43:11;;;;;;;7.68;3.97;;;20.80;62.50;;;;;;5036719;28;20037;-53
2023/08/08 11:45:38;;;;;;;5.22;3.45;;;20.70;62.90;;;;;;5049768;28;20037;-51
2023/08/08 11:48:05;;;;;;;3.28;2.50;;;20.70;63.60;;;;;;5044788;28;20108;-53
2023/08/08 11:50:34;;;;;;;3.85;2.47;;;20.70;64.50;;;;;;5047416;28;20079;-53
2023/08/08 11:53:04;;;;;;;7.60;2.95;;;20.70;64.50;;;;;;5041697;28;20045;-49
2023/08/08 11:55:33;;;;;;;5.00;2.40;;;20.90;64.90;;;;;;5047549;28;20033;-51
2023/08/08 11:58:01;;;;;;;4.30;2.50;;;21.00;64.80;;;;;;5044727;28;20040;-50
2023/08/08 12:00:30;;;;;;;3.42;2.47;;;21.10;63.80;;;;;;5048668;28;20108;-53
2023/08/08 12:02:57;;;;;;;4.50;2.80;;;21.20;63.30;;;;;;5048688;28;20589;-53
2023/08/08 12:05:25;;;;;;;3.80;2.10;;;21.30;63.40;;;;;;5048253;28;20036;-53
2023/08/08 12:07:52;;;;;;;5.55;2.85;;;21.40;62.90;;;;;;5048738;28;20582;-53
2023/08/08 12:10:23;;;;;;;5.50;2.97;;;21.50;62.50;;;;;;5043898;28;20158;-53
2023/08/08 12:12:56;;;;;;;3.97;2.55;;;21.60;61.80;;;;;;5047049;28;20040;-53
2023/08/08 12:15:34;;;;;;;3.43;2.47;;;21.70;61.30;;;;;;5038086;28;20037;-53
2023/08/08 12:18:06;;;;;;;3.88;2.50;;;21.90;60.80;;;;;;5047511;28;20310;-48
2023/08/08 12:20:33;;;;;;;4.20;2.05;;;22.00;59.10;;;;;;5045613;28;20041;-53
2023/08/08 12:23:01;;;;;;;3.63;2.65;;;22.10;58.80;;;;;;5044904;28;20033;-49
2023/08/08 12:25:28;;;;;;;3.78;2.00;;;22.10;59.10;;;;;;5030530;28;20127;-50
2023/08/08 12:27:56;;;;;;;4.47;2.40;;;22.20;59.10;;;;;;5044073;28;20041;-53
2023/08/08 12:30:23;;;;;;;5.53;2.55;;;22.30;59.20;;;;;;5050130;28;20085;-53
2023/08/08 12:32:53;;;;;;;5.07;2.58;;;22.40;58.90;;;;;;5048154;28;20454;-53
2023/08/08 12:35:22;;;;;;;3.28;2.13;;;22.40;58.40;;;;;;5045115;28;20045;-50
2023/08/08 12:37:52;;;;;;;4.30;2.40;;;22.50;57.90;;;;;;5050217;28;20462;-53
2023/08/08 12:40:21;;;;;;;4.38;2.25;;;22.50;57.30;;;;;;5045431;28;20120;-53
2023/08/08 12:42:48;;;;;;;2.92;2.45;;;22.40;56.70;;;;;;5045523;28;20091;-53
2023/08/08 12:45:17;;;;;;;6.07;3.42;;;22.40;57.00;;;;;;5048910;28;20499;-51
2023/08/08 12:47:47;;;;;;;2.65;2.38;;;22.30;56.90;;;;;;5047974;28;20461;-51
2023/08/08 12:50:14;;;;;;;7.97;2.95;;;22.10;57.10;;;;;;5010839;28;20156;-47
2023/08/08 12:52:41;;;;;;;3.25;2.15;;;22.10;57.30;;;;;;5049331;28;20453;-50
2023/08/08 12:55:11;;;;;;;3.58;2.20;;;22.00;57.70;;;;;;5052970;28;20120;-51
2023/08/08 12:57:38;;;;;;;3.05;2.50;;;21.90;58.10;;;;;;5051313;28;20372;-53
2023/08/08 13:00:08;;;;;;;2.90;2.33;;;21.90;58.70;;;;;;5054845;28;20037;-50